»·PEaware :: VIPER16 KKNB-KLGB

VIPER16 :: KKNB-KLGB

FLIGHT INFORMATION

Flight Status: Arrived
Operator: Unknown
More flights by this operator :: More flights under this callsign
Pilot: Kevin M. (7)
Aircraft: GENERAL DYNAMICS F-16 FIGHTING FALCON
(F16)
More flights by this aircraft type
Origin: KKNB Kanab Mun
United States
Destination: KLGB Long Beach
United States
More flights between these airports :: More routes between these airports
Route:
File this flight plan on PilotEdge
Remarks: Dead reckoning the Alphabet challenge leg 11
Altitude:
(Current/Filed)
16,500ft
Speed:
(Current/Filed)
550kts
Departed: 06-Nov-19 12:21 PM
Arrived: 06-Nov-19 01:04 PM
Distance/Time
Traveled:
335nm/0:43
Distance/Time
To Go:
Arrived

Flight Plot

Page will automatically refresh every two minutes.


Map Options




Map Legend


Flown Route
Filed Route
Departure Airport
Arrival Airport
Navaid (VOR, NDB)
Fix

Horizontal Profiles

Position Reports

Time Latitude Longitude Heading Altitude Ground
Speed
06-Nov-19 12:18 37.008910 -112.531177 93 4832ft 0kts
06-Nov-19 12:19 37.008704 -112.532318 9 4828ft 9kts
06-Nov-19 12:20 37.012068 -112.554625 273 13507ft 203kts
06-Nov-19 12:21 37.026353 -112.685776 257 16569ft 614kts
06-Nov-19 12:22 36.961555 -112.881347 245 16581ft 608kts
06-Nov-19 12:23 36.891566 -113.075023 245 16581ft 614kts
06-Nov-19 12:24 36.827599 -113.251778 245 16575ft 613kts
06-Nov-19 12:25 36.757572 -113.445520 246 16561ft 611kts
06-Nov-19 12:26 36.688065 -113.638161 246 16545ft 609kts
06-Nov-19 12:27 36.618564 -113.831057 245 16563ft 609kts
06-Nov-19 12:28 36.549274 -114.023656 246 16563ft 609kts
06-Nov-19 12:29 36.480138 -114.216119 246 16516ft 611kts
06-Nov-19 12:30 36.410774 -114.409523 246 16499ft 612kts
06-Nov-19 12:31 36.341798 -114.602170 246 16499ft 611kts
06-Nov-19 12:32 36.272814 -114.795066 246 16499ft 611kts
06-Nov-19 12:33 36.204119 -114.987414 246 16500ft 611kts
06-Nov-19 12:34 36.134301 -115.179671 246 16509ft 612kts
06-Nov-19 12:35 36.062755 -115.372314 246 16512ft 615kts
06-Nov-19 12:36 35.991227 -115.564899 246 16501ft 615kts
06-Nov-19 12:37 35.919670 -115.757732 246 16521ft 615kts
06-Nov-19 12:38 35.848903 -115.948456 246 16534ft 614kts
06-Nov-19 12:39 35.777644 -116.140602 246 16511ft 616kts
06-Nov-19 12:40 35.706715 -116.331951 246 16508ft 616kts
06-Nov-19 12:41 35.635632 -116.523862 246 16508ft 616kts
06-Nov-19 12:42 35.564672 -116.715564 246 16509ft 616kts
06-Nov-19 12:43 35.493653 -116.907549 246 16509ft 616kts
06-Nov-19 12:44 35.423150 -117.098259 246 16509ft 614kts
06-Nov-19 12:45 35.352325 -117.290115 246 16519ft 613kts
06-Nov-19 12:46 35.281931 -117.480792 247 16524ft 613kts
06-Nov-19 12:47 35.211922 -117.670564 246 16511ft 612kts
06-Nov-19 12:48 35.141797 -117.860768 246 16509ft 611kts
06-Nov-19 12:49 35.046104 -118.028596 211 16497ft 624kts
06-Nov-19 12:50 34.881372 -118.083007 192 16517ft 636kts
06-Nov-19 12:52 34.706842 -118.128835 192 16532ft 636kts
06-Nov-19 12:53 34.533802 -118.174069 192 16532ft 636kts
06-Nov-19 12:54 34.357636 -118.171692 177 16516ft 635kts
06-Nov-19 12:55 34.181024 -118.162186 177 16476ft 632kts
06-Nov-19 12:56 34.004864 -118.152589 177 16523ft 632kts
06-Nov-19 12:57 33.829223 -118.142908 177 16517ft 632kts
06-Nov-19 12:58 33.682914 -118.198087 247 10623ft 530kts
06-Nov-19 12:59 33.600586 -118.265273 164 11737ft 275kts
06-Nov-19 13:00 33.623956 -118.208006 33 1227ft 302kts
06-Nov-19 13:01 33.689069 -118.156517 35 1154ft 244kts
06-Nov-19 13:02 33.745860 -118.124278 13 1100ft 219kts
06-Nov-19 13:03 33.799022 -118.128580 312 463ft 166kts
06-Nov-19 13:04 33.820930 -118.155106 313 51ft 36kts
06-Nov-19 13:05 33.821410 -118.157222 197 53ft 0kts
06-Nov-19 13:06 33.818771 -118.157310 176 51ft 16kts
06-Nov-19 13:07 33.818303 -118.157887 275 52ft 0kts
06-Nov-19 13:08 33.818303 -118.157887 275 52ft 0kts
06-Nov-19 13:09 33.817881 -118.158235 268 49ft 0kts

Navigation Log

Ident Type
Flight plan parsing failed, navigation log unavailable